Time;durP1;ratioP1;P1;durP2;ratioP2;P2;SDS_P1;SDS_P2;PMS_P1;PMS_P2;Temp;Humidity;BMP_temperature;BMP_pressure;BME280_temperature;BME280_humidity;BME280_pressure;Samples;Min_cycle;Max_cycle;Signal;HPM_P1;HPM_P2
2023/08/09 00:00:59;;;;;;;10.67;3.80;;;;;;;;;;5047677;28;20268;-73
2023/08/09 00:03:24;;;;;;;4.00;3.00;;;;;;;;;;5048646;28;20260;-73
2023/08/09 00:05:50;;;;;;;8.32;2.83;;;;;;;;;;5050313;28;20594;-73
2023/08/09 00:08:15;;;;;;;9.60;2.83;;;;;;;;;;5046249;28;20033;-73
2023/08/09 00:10:40;;;;;;;5.50;3.33;;;;;;;;;;5046405;28;20284;-72
2023/08/09 00:13:06;;;;;;;8.45;3.05;;;;;;;;;;5047371;28;20067;-73
2023/08/09 00:15:31;;;;;;;7.38;3.00;;;;;;;;;;5049013;28;20068;-73
2023/08/09 00:17:57;;;;;;;4.90;2.90;;;;;;;;;;5048344;28;20394;-73
2023/08/09 00:20:22;;;;;;;14.40;3.67;;;;;;;;;;5047837;28;20040;-72
2023/08/09 00:22:48;;;;;;;4.78;2.88;;;;;;;;;;5046924;28;20358;-72
2023/08/09 00:25:13;;;;;;;6.60;2.70;;;;;;;;;;5045081;28;20505;-72
2023/08/09 00:27:38;;;;;;;9.53;2.93;;;;;;;;;;5048644;28;20032;-72
2023/08/09 00:30:04;;;;;;;6.47;2.55;;;;;;;;;;5048737;28;20332;-73
2023/08/09 00:32:29;;;;;;;6.68;2.90;;;;;;;;;;5047551;28;20032;-72
2023/08/09 00:34:55;;;;;;;7.05;2.72;;;;;;;;;;5047358;28;20108;-72
2023/08/09 00:37:21;;;;;;;9.95;3.65;;;;;;;;;;5046662;28;20024;-73
2023/08/09 00:39:46;;;;;;;7.68;3.53;;;;;;;;;;5047067;28;20021;-73
2023/08/09 00:42:11;;;;;;;10.30;3.20;;;;;;;;;;5048369;28;20017;-72
2023/08/09 00:44:36;;;;;;;5.50;3.20;;;;;;;;;;5047607;28;20303;-72
2023/08/09 00:47:01;;;;;;;8.95;3.40;;;;;;;;;;5047797;28;20021;-72
2023/08/09 00:49:27;;;;;;;8.47;3.50;;;;;;;;;;5046943;28;20106;-73
2023/08/09 00:51:52;;;;;;;8.90;3.20;;;;;;;;;;5047553;28;20263;-73
2023/08/09 00:54:18;;;;;;;7.22;3.55;;;;;;;;;;5048063;28;20268;-73
2023/08/09 00:56:44;;;;;;;8.85;3.72;;;;;;;;;;5048708;28;20021;-73
2023/08/09 00:59:09;;;;;;;7.13;3.65;;;;;;;;;;5045971;28;20478;-73
2023/08/09 01:01:34;;;;;;;9.88;4.10;;;;;;;;;;5047245;28;20016;-73
2023/08/09 01:04:00;;;;;;;5.33;3.37;;;;;;;;;;5046153;28;20027;-73
2023/08/09 01:06:37;;;;;;;16.52;4.25;;;;;;;;;;5046441;28;20279;-73
2023/08/09 01:09:10;;;;;;;13.00;4.70;;;;;;;;;;5046946;28;20029;-73
2023/08/09 01:11:40;;;;;;;8.40;4.50;;;;;;;;;;5047010;28;20123;-73
2023/08/09 01:14:07;;;;;;;13.15;5.97;;;;;;;;;;5046888;28;20035;-73
2023/08/09 01:16:32;;;;;;;16.98;7.22;;;;;;;;;;5047835;28;20025;-73
2023/08/09 01:18:57;;;;;;;16.80;7.60;;;;;;;;;;5045955;28;20686;-73
2023/08/09 01:21:24;;;;;;;16.25;8.60;;;;;;;;;;5045222;28;20393;-73
2023/08/09 01:23:49;;;;;;;11.93;7.40;;;;;;;;;;5046514;28;20024;-73
2023/08/09 01:26:15;;;;;;;15.63;7.93;;;;;;;;;;5048286;28;20033;-73
2023/08/09 01:28:40;;;;;;;22.73;9.40;;;;;;;;;;5047060;28;20032;-73
2023/08/09 01:31:05;;;;;;;17.23;8.50;;;;;;;;;;5045746;28;20060;-73
2023/08/09 01:33:30;;;;;;;16.70;6.80;;;;;;;;;;5028988;28;20267;-73
2023/08/09 01:36:15;;;;;;;16.65;6.82;;;;;;;;;;5046022;28;20286;-73
2023/08/09 01:38:53;;;;;;;15.43;5.97;;;;;;;;;;5045569;28;20478;-73
2023/08/09 01:41:19;;;;;;;14.98;5.28;;;;;;;;;;5046347;28;20021;-73
2023/08/09 01:43:45;;;;;;;8.80;2.88;;;;;;;;;;5047041;28;20029;-73
2023/08/09 01:46:10;;;;;;;5.20;2.50;;;;;;;;;;5046240;28;20046;-73
2023/08/09 01:48:35;;;;;;;7.03;2.63;;;;;;;;;;5044963;28;20029;-73
2023/08/09 01:51:02;;;;;;;4.25;2.25;;;;;;;;;;5047238;28;20107;-73
2023/08/09 01:53:27;;;;;;;5.85;3.05;;;;;;;;;;5045062;28;20103;-73
2023/08/09 01:55:52;;;;;;;7.85;2.78;;;;;;;;;;5046825;28;20558;-73
2023/08/09 01:58:17;;;;;;;3.85;2.50;;;;;;;;;;5045049;28;20043;-73
2023/08/09 02:00:43;;;;;;;5.23;3.33;;;;;;;;;;5043431;28;20096;-73
2023/08/09 02:03:08;;;;;;;6.40;3.77;;;;;;;;;;5046668;28;20271;-73
2023/08/09 02:05:33;;;;;;;6.77;3.57;;;;;;;;;;5045413;28;20276;-73
2023/08/09 02:07:58;;;;;;;7.95;4.25;;;;;;;;;;5044433;28;20652;-74
2023/08/09 02:10:24;;;;;;;7.57;4.32;;;;;;;;;;5046256;28;20390;-73
2023/08/09 02:12:49;;;;;;;7.97;4.07;;;;;;;;;;5043623;28;20200;-73
2023/08/09 02:15:19;;;;;;;6.68;4.00;;;;;;;;;;5041212;28;20783;-73
2023/08/09 02:17:44;;;;;;;9.48;4.47;;;;;;;;;;5044762;28;20123;-73
2023/08/09 02:20:10;;;;;;;8.93;4.47;;;;;;;;;;5047457;28;20512;-73
2023/08/09 02:22:36;;;;;;;4.28;3.00;;;;;;;;;;5046113;28;20106;-73
2023/08/09 02:25:02;;;;;;;7.35;3.30;;;;;;;;;;5045339;28;20024;-73
2023/08/09 02:27:27;;;;;;;6.00;3.22;;;;;;;;;;5045633;28;20020;-73
2023/08/09 02:29:52;;;;;;;11.33;2.93;;;;;;;;;;5047033;28;20032;-73
2023/08/09 02:32:17;;;;;;;4.27;2.73;;;;;;;;;;5046540;28;20278;-73
2023/08/09 02:34:42;;;;;;;6.67;3.03;;;;;;;;;;5046436;28;20271;-73
2023/08/09 02:37:07;;;;;;;10.37;2.53;;;;;;;;;;5045314;28;20290;-73
2023/08/09 02:39:33;;;;;;;4.00;2.27;;;;;;;;;;5043915;28;20752;-73
2023/08/09 02:41:59;;;;;;;5.78;2.65;;;;;;;;;;5045919;28;20299;-73
2023/08/09 02:44:24;;;;;;;5.22;2.90;;;;;;;;;;5046767;28;20025;-73
2023/08/09 02:46:49;;;;;;;4.78;2.75;;;;;;;;;;5046645;28;20112;-73
2023/08/09 02:49:14;;;;;;;4.23;2.10;;;;;;;;;;5045139;28;20116;-73
2023/08/09 02:51:39;;;;;;;3.57;1.80;;;;;;;;;;5046372;28;20282;-73
2023/08/09 02:54:05;;;;;;;6.43;2.10;;;;;;;;;;5042577;28;20279;-73
2023/08/09 02:56:32;;;;;;;4.43;2.28;;;;;;;;;;5045440;28;20333;-73
2023/08/09 02:58:57;;;;;;;3.38;2.13;;;;;;;;;;5044328;28;20025;-73
2023/08/09 03:01:22;;;;;;;2.95;1.90;;;;;;;;;;5047706;28;20040;-73
2023/08/09 03:03:51;;;;;;;6.47;2.92;;;;;;;;;;5046466;28;20071;-73
2023/08/09 03:06:22;;;;;;;4.10;2.42;;;;;;;;;;5045166;28;20124;-73
2023/08/09 03:08:47;;;;;;;3.67;2.47;;;;;;;;;;5043950;28;20120;-73
2023/08/09 03:11:13;;;;;;;8.32;3.10;;;;;;;;;;5044348;28;20104;-73
2023/08/09 03:13:38;;;;;;;6.57;3.85;;;;;;;;;;5042416;28;20101;-73
2023/08/09 03:16:03;;;;;;;8.93;4.28;;;;;;;;;;5045670;28;20079;-73
2023/08/09 03:18:28;;;;;;;12.93;4.53;;;;;;;;;;5045374;28;20069;-73
2023/08/09 03:20:54;;;;;;;7.67;4.20;;;;;;;;;;5046437;28;20021;-73
2023/08/09 03:23:19;;;;;;;8.57;4.53;;;;;;;;;;5046825;28;20668;-73
2023/08/09 03:25:44;;;;;;;10.18;4.18;;;;;;;;;;5043913;28;20282;-73
2023/08/09 03:28:10;;;;;;;6.72;3.90;;;;;;;;;;5044692;28;20436;-73
2023/08/09 03:30:35;;;;;;;8.50;3.80;;;;;;;;;;5049733;28;20017;-73
2023/08/09 03:33:01;;;;;;;5.97;3.45;;;;;;;;;;5049729;28;20052;-73
2023/08/09 03:35:26;;;;;;;9.35;3.95;;;;;;;;;;5048532;28;20025;-73
2023/08/09 03:37:51;;;;;;;9.77;4.37;;;;;;;;;;5047242;28;20385;-73
2023/08/09 03:40:16;;;;;;;9.73;4.40;;;;;;;;;;5045327;28;20340;-73
2023/08/09 03:42:42;;;;;;;9.20;3.78;;;;;;;;;;5049309;28;20053;-73
2023/08/09 03:45:07;;;;;;;16.70;4.25;;;;;;;;;;5049543;28;20017;-73
2023/08/09 03:47:32;;;;;;;14.93;3.90;;;;;;;;;;5049203;28;20115;-73
2023/08/09 03:49:58;;;;;;;7.07;3.08;;;;;;;;;;5046553;28;20025;-73
2023/08/09 03:52:23;;;;;;;7.03;3.25;;;;;;;;;;5052452;28;20025;-73
2023/08/09 03:54:52;;;;;;;17.30;3.78;;;;;;;;;;5045509;28;20026;-73
2023/08/09 03:57:17;;;;;;;10.07;5.10;;;;;;;;;;5048856;28;20561;-73
2023/08/09 03:59:42;;;;;;;8.00;4.43;;;;;;;;;;5047282;28;20100;-73
2023/08/09 04:02:07;;;;;;;8.95;4.60;;;;;;;;;;5048124;28;20104;-73
2023/08/09 04:04:34;;;;;;;12.53;5.30;;;;;;;;;;5049013;28;20497;-73
2023/08/09 04:06:59;;;;;;;14.02;5.32;;;;;;;;;;5046526;28;20274;-73
2023/08/09 04:09:25;;;;;;;9.85;4.32;;;;;;;;;;5049356;28;20025;-74
2023/08/09 04:11:50;;;;;;;11.23;5.22;;;;;;;;;;5048668;28;20079;-73
2023/08/09 04:14:15;;;;;;;13.10;5.32;;;;;;;;;;5048934;28;20059;-73
2023/08/09 04:16:40;;;;;;;13.00;5.40;;;;;;;;;;5049716;28;20029;-73
2023/08/09 04:19:05;;;;;;;12.17;5.73;;;;;;;;;;5050890;28;20029;-73
2023/08/09 04:21:33;;;;;;;15.00;6.43;;;;;;;;;;5049443;28;20275;-73
2023/08/09 04:23:58;;;;;;;13.23;6.25;;;;;;;;;;5048652;28;20334;-73
2023/08/09 04:26:24;;;;;;;16.15;6.63;;;;;;;;;;5047713;28;20064;-73
2023/08/09 04:28:49;;;;;;;12.48;6.85;;;;;;;;;;5047090;28;20040;-73
2023/08/09 04:31:14;;;;;;;14.68;7.50;;;;;;;;;;5050001;28;20107;-73
2023/08/09 04:33:39;;;;;;;18.45;7.72;;;;;;;;;;5052314;28;20104;-73
2023/08/09 04:36:05;;;;;;;14.53;7.20;;;;;;;;;;5050453;28;20021;-73
2023/08/09 04:38:30;;;;;;;17.45;6.90;;;;;;;;;;5048098;28;20263;-73
2023/08/09 04:40:55;;;;;;;14.90;7.07;;;;;;;;;;5045309;28;20017;-73
2023/08/09 04:43:20;;;;;;;11.43;6.93;;;;;;;;;;5045125;28;20414;-73
2023/08/09 04:45:47;;;;;;;12.65;7.05;;;;;;;;;;5049630;28;21921;-73
2023/08/09 04:48:16;;;;;;;12.43;6.75;;;;;;;;;;5048527;28;20032;-73
2023/08/09 04:50:41;;;;;;;13.05;7.35;;;;;;;;;;5047602;28;20027;-73
2023/08/09 04:53:06;;;;;;;12.20;6.90;;;;;;;;;;5045118;28;20103;-73
2023/08/09 04:55:32;;;;;;;16.47;7.73;;;;;;;;;;5048349;28;21950;-73
2023/08/09 04:57:57;;;;;;;15.98;7.57;;;;;;;;;;5045424;28;20325;-73
2023/08/09 05:00:22;;;;;;;17.50;7.03;;;;;;;;;;5051372;28;20687;-73
2023/08/09 05:02:47;;;;;;;14.45;7.07;;;;;;;;;;5050868;28;20263;-73
2023/08/09 05:05:12;;;;;;;11.93;7.33;;;;;;;;;;5048642;28;20377;-73
2023/08/09 05:07:39;;;;;;;12.63;7.13;;;;;;;;;;5042449;28;20277;-73
2023/08/09 05:10:04;;;;;;;16.45;6.97;;;;;;;;;;5038391;28;20025;-73
2023/08/09 05:12:30;;;;;;;15.25;7.63;;;;;;;;;;5028033;28;20028;-73
2023/08/09 05:14:57;;;;;;;19.15;8.27;;;;;;;;;;5043303;28;20020;-73
2023/08/09 05:17:22;;;;;;;17.92;8.65;;;;;;;;;;5044535;28;20028;-73
2023/08/09 05:19:47;;;;;;;19.05;8.98;;;;;;;;;;5049136;28;20024;-73
2023/08/09 05:22:12;;;;;;;18.80;9.27;;;;;;;;;;5047634;28;20116;-73
2023/08/09 05:24:38;;;;;;;17.90;9.10;;;;;;;;;;5047676;28;20271;-73
2023/08/09 05:27:03;;;;;;;22.08;9.40;;;;;;;;;;5046474;28;20071;-73
2023/08/09 05:29:28;;;;;;;15.95;8.40;;;;;;;;;;5047145;28;20021;-73
2023/08/09 05:31:53;;;;;;;19.67;8.97;;;;;;;;;;5047533;28;20529;-73
2023/08/09 05:34:19;;;;;;;19.73;9.05;;;;;;;;;;5046639;28;20267;-73
2023/08/09 05:36:44;;;;;;;21.60;9.20;;;;;;;;;;5047209;28;20021;-73
2023/08/09 05:39:09;;;;;;;18.92;9.30;;;;;;;;;;5046669;28;20414;-73
2023/08/09 05:41:35;;;;;;;22.10;9.13;;;;;;;;;;5047589;28;20048;-73
2023/08/09 05:44:00;;;;;;;17.83;8.90;;;;;;;;;;5047407;28;20449;-73
2023/08/09 05:46:25;;;;;;;18.83;9.33;;;;;;;;;;5046896;28;20489;-73
2023/08/09 05:48:50;;;;;;;18.50;9.47;;;;;;;;;;5046172;28;20299;-73
2023/08/09 05:51:15;;;;;;;22.38;9.93;;;;;;;;;;5047959;28;20290;-73
2023/08/09 05:53:41;;;;;;;19.67;9.80;;;;;;;;;;5044849;28;20032;-73
2023/08/09 05:56:07;;;;;;;24.58;9.80;;;;;;;;;;5045887;28;20032;-73
2023/08/09 05:58:32;;;;;;;21.52;9.35;;;;;;;;;;5045110;28;20112;-73
2023/08/09 06:00:57;;;;;;;29.63;10.53;;;;;;;;;;5042519;28;20022;-73
2023/08/09 06:03:22;;;;;;;27.87;10.07;;;;;;;;;;5042740;28;20348;-73
2023/08/09 06:05:48;;;;;;;25.63;11.00;;;;;;;;;;5042829;28;20284;-73
2023/08/09 06:08:13;;;;;;;23.75;10.00;;;;;;;;;;5043021;28;20664;-73
2023/08/09 06:10:38;;;;;;;25.63;10.37;;;;;;;;;;5043164;28;20021;-73
2023/08/09 06:13:03;;;;;;;31.73;10.50;;;;;;;;;;5025416;28;20798;-73
2023/08/09 06:15:28;;;;;;;29.83;10.50;;;;;;;;;;5046119;28;20045;-73
2023/08/09 06:17:53;;;;;;;25.58;10.68;;;;;;;;;;5042343;28;20283;-73
2023/08/09 06:20:21;;;;;;;25.90;10.63;;;;;;;;;;5047511;28;20515;-73
2023/08/09 06:22:46;;;;;;;26.45;12.13;;;;;;;;;;5026971;28;20301;-73
2023/08/09 06:25:11;;;;;;;25.27;11.32;;;;;;;;;;5040153;28;20025;-73
2023/08/09 06:27:37;;;;;;;25.97;10.73;;;;;;;;;;5039166;28;20036;-73
2023/08/09 06:30:03;;;;;;;27.67;12.33;;;;;;;;;;5048818;28;20346;-73
2023/08/09 06:32:28;;;;;;;24.48;11.73;;;;;;;;;;5049794;28;20948;-73
2023/08/09 06:34:53;;;;;;;25.02;10.50;;;;;;;;;;5048005;28;20052;-73
2023/08/09 06:37:19;;;;;;;21.52;9.95;;;;;;;;;;5046081;28;20524;-73
2023/08/09 06:39:44;;;;;;;16.70;8.77;;;;;;;;;;5047961;28;20025;-73
2023/08/09 06:42:12;;;;;;;18.63;9.07;;;;;;;;;;5048789;28;20019;-73
2023/08/09 06:44:37;;;;;;;15.32;6.97;;;;;;;;;;5046920;28;20040;-73
2023/08/09 06:47:02;;;;;;;16.95;7.57;;;;;;;;;;5047423;28;20029;-72
2023/08/09 06:49:27;;;;;;;13.17;7.10;;;;;;;;;;5047955;28;20520;-72
2023/08/09 06:51:54;;;;;;;13.93;6.37;;;;;;;;;;5048996;28;20275;-72
2023/08/09 06:54:20;;;;;;;18.42;6.65;;;;;;;;;;5045999;28;20251;-72
2023/08/09 06:56:45;;;;;;;11.98;6.18;;;;;;;;;;5047512;28;20036;-72
2023/08/09 06:59:10;;;;;;;18.60;6.33;;;;;;;;;;5047540;28;20536;-72
2023/08/09 07:01:35;;;;;;;9.82;5.60;;;;;;;;;;5046085;28;20266;-73
2023/08/09 07:04:01;;;;;;;12.17;5.43;;;;;;;;;;5052174;28;20044;-72
2023/08/09 07:06:26;;;;;;;7.10;5.00;;;;;;;;;;5050088;28;20759;-72
2023/08/09 07:08:53;;;;;;;7.87;4.50;;;;;;;;;;5051124;28;20536;-72
2023/08/09 07:11:19;;;;;;;6.63;4.57;;;;;;;;;;5049473;28;20305;-72
2023/08/09 07:13:44;;;;;;;12.30;5.32;;;;;;;;;;5052529;28;20021;-72
2023/08/09 07:16:09;;;;;;;10.85;6.85;;;;;;;;;;5050250;28;20082;-72
2023/08/09 07:18:34;;;;;;;12.67;6.53;;;;;;;;;;5050744;28;20474;-72
2023/08/09 07:21:00;;;;;;;9.03;5.90;;;;;;;;;;5050570;28;20295;-72
2023/08/09 07:23:25;;;;;;;11.57;5.15;;;;;;;;;;5051783;28;20024;-72
2023/08/09 07:25:51;;;;;;;7.32;5.40;;;;;;;;;;5050721;28;20025;-72
2023/08/09 07:28:16;;;;;;;9.30;5.10;;;;;;;;;;5052016;28;20536;-72
2023/08/09 07:30:41;;;;;;;11.33;5.83;;;;;;;;;;5052064;28;20074;-73
2023/08/09 07:33:06;;;;;;;12.43;5.90;;;;;;;;;;5052049;28;20021;-73
2023/08/09 07:35:31;;;;;;;11.20;6.30;;;;;;;;;;5047841;28;20139;-73
2023/08/09 07:37:57;;;;;;;13.00;6.97;;;;;;;;;;5048010;28;20029;-72
2023/08/09 07:40:22;;;;;;;11.13;5.90;;;;;;;;;;5052255;28;20285;-73
2023/08/09 07:42:47;;;;;;;11.27;5.83;;;;;;;;;;5052050;28;20025;-72
2023/08/09 07:45:12;;;;;;;10.70;6.93;;;;;;;;;;5047803;28;20385;-72
2023/08/09 07:47:39;;;;;;;11.37;7.00;;;;;;;;;;5052167;28;20673;-72
2023/08/09 07:50:05;;;;;;;10.75;7.55;;;;;;;;;;5052073;28;20288;-72
2023/08/09 07:52:30;;;;;;;15.25;8.48;;;;;;;;;;5049498;28;20091;-72
2023/08/09 07:54:56;;;;;;;16.90;8.98;;;;;;;;;;5051964;28;20478;-73
2023/08/09 07:57:21;;;;;;;12.35;8.18;;;;;;;;;;5049590;28;20021;-73
2023/08/09 07:59:46;;;;;;;8.55;6.60;;;;;;;;;;5052464;28;20098;-73
2023/08/09 08:02:11;;;;;;;10.03;7.00;;;;;;;;;;5049239;28;20047;-73
2023/08/09 08:04:37;;;;;;;12.97;7.70;;;;;;;;;;5048304;28;20021;-73
2023/08/09 08:07:03;;;;;;;10.10;6.20;;;;;;;;;;5048220;28;20275;-71
2023/08/09 08:09:32;;;;;;;9.88;6.10;;;;;;;;;;5050488;28;20032;-71
2023/08/09 08:11:58;;;;;;;12.93;5.32;;;;;;;;;;5051384;28;20063;-71
2023/08/09 08:14:23;;;;;;;9.45;5.07;;;;;;;;;;5049834;28;20029;-71
2023/08/09 08:16:50;;;;;;;6.50;4.90;;;;;;;;;;5049037;28;20531;-71
2023/08/09 08:19:15;;;;;;;8.63;5.30;;;;;;;;;;5048780;28;20107;-71
2023/08/09 08:21:40;;;;;;;8.17;5.23;;;;;;;;;;5046367;28;20111;-71
2023/08/09 08:24:08;;;;;;;10.05;6.28;;;;;;;;;;5046682;28;20017;-70
2023/08/09 08:26:33;;;;;;;13.85;6.53;;;;;;;;;;5047254;28;20516;-71
2023/08/09 08:28:58;;;;;;;9.38;5.35;;;;;;;;;;5047813;28;20021;-70
2023/08/09 08:31:24;;;;;;;8.70;5.50;;;;;;;;;;5044998;28;20802;-71
2023/08/09 08:33:51;;;;;;;11.27;6.82;;;;;;;;;;5047625;28;20045;-70
2023/08/09 08:36:16;;;;;;;10.07;5.68;;;;;;;;;;5045711;28;20071;-70
2023/08/09 08:38:42;;;;;;;8.95;6.93;;;;;;;;;;5048895;28;20041;-70
2023/08/09 08:41:07;;;;;;;8.93;5.78;;;;;;;;;;5046787;28;20025;-72
2023/08/09 08:43:32;;;;;;;7.60;5.85;;;;;;;;;;5048392;28;20498;-72
2023/08/09 08:45:58;;;;;;;9.50;6.23;;;;;;;;;;5047187;28;20029;-72
2023/08/09 08:48:24;;;;;;;10.35;6.30;;;;;;;;;;5048890;28;20283;-72
2023/08/09 08:50:50;;;;;;;9.20;6.78;;;;;;;;;;5050214;28;20028;-72
2023/08/09 08:53:15;;;;;;;10.82;6.97;;;;;;;;;;5032107;28;20032;-72
2023/08/09 08:55:41;;;;;;;9.38;6.03;;;;;;;;;;5049901;28;20024;-72
2023/08/09 08:58:07;;;;;;;8.32;6.05;;;;;;;;;;5047849;28;20112;-72
2023/08/09 09:00:32;;;;;;;10.38;6.03;;;;;;;;;;5049001;28;20029;-72
2023/08/09 09:02:58;;;;;;;9.20;6.50;;;;;;;;;;5050731;28;20017;-72
2023/08/09 09:05:23;;;;;;;8.98;5.55;;;;;;;;;;5047392;28;20044;-72
2023/08/09 09:07:50;;;;;;;8.18;6.20;;;;;;;;;;5046970;28;20032;-72
2023/08/09 09:10:15;;;;;;;8.77;5.40;;;;;;;;;;5045728;28;20021;-72
2023/08/09 09:12:41;;;;;;;8.40;5.65;;;;;;;;;;5047000;28;20737;-72
2023/08/09 09:15:07;;;;;;;7.57;4.18;;;;;;;;;;5050241;28;20035;-72
2023/08/09 09:17:37;;;;;;;11.23;4.72;;;;;;;;;;5048487;28;20032;-72
2023/08/09 09:20:02;;;;;;;8.27;5.18;;;;;;;;;;5051219;28;20080;-72
2023/08/09 09:22:29;;;;;;;11.80;4.75;;;;;;;;;;5050093;28;20083;-72
2023/08/09 09:25:01;;;;;;;11.98;4.82;;;;;;;;;;5032984;28;20411;-72
2023/08/09 09:27:31;;;;;;;10.40;4.82;;;;;;;;;;5046208;28;20051;-72
2023/08/09 09:30:12;;;;;;;11.48;5.25;;;;;;;;;;5043081;28;20076;-72
2023/08/09 09:32:37;;;;;;;10.05;4.03;;;;;;;;;;5046748;28;20024;-72
2023/08/09 09:35:03;;;;;;;11.68;3.55;;;;;;;;;;5049677;28;20074;-72
2023/08/09 09:37:29;;;;;;;8.40;3.95;;;;;;;;;;5048508;28;20035;-72
2023/08/09 09:39:55;;;;;;;6.32;3.53;;;;;;;;;;5046177;28;20767;-72
2023/08/09 09:42:30;;;;;;;5.20;3.72;;;;;;;;;;5029615;28;20048;-72
2023/08/09 09:45:23;;;;;;;7.55;3.55;;;;;;;;;;5042368;28;20504;-72
2023/08/09 09:47:48;;;;;;;6.40;3.65;;;;;;;;;;5046513;28;20052;-72
2023/08/09 09:50:14;;;;;;;7.83;4.37;;;;;;;;;;5047671;28;20025;-73
2023/08/09 09:52:39;;;;;;;11.77;3.97;;;;;;;;;;5042296;28;20675;-72
2023/08/09 09:55:05;;;;;;;7.32;4.00;;;;;;;;;;5048437;28;20055;-72
2023/08/09 09:57:31;;;;;;;13.82;4.57;;;;;;;;;;5048483;28;20031;-72
2023/08/09 09:59:58;;;;;;;12.45;4.70;;;;;;;;;;5050054;28;20020;-72
2023/08/09 10:02:24;;;;;;;9.07;4.32;;;;;;;;;;5048512;28;20035;-72
2023/08/09 10:04:49;;;;;;;8.20;3.85;;;;;;;;;;5045741;28;20020;-72
2023/08/09 10:07:15;;;;;;;12.00;4.07;;;;;;;;;;5046007;28;20348;-72
2023/08/09 10:09:41;;;;;;;6.43;4.20;;;;;;;;;;5049744;28;20492;-72
2023/08/09 10:12:08;;;;;;;9.43;4.85;;;;;;;;;;5048210;28;20017;-72
2023/08/09 10:14:34;;;;;;;8.07;4.57;;;;;;;;;;5044800;28;20116;-72
2023/08/09 10:17:00;;;;;;;8.63;4.65;;;;;;;;;;5048213;28;20105;-73
2023/08/09 10:19:26;;;;;;;7.57;4.45;;;;;;;;;;5046508;28;20016;-72
2023/08/09 10:21:53;;;;;;;6.40;4.15;;;;;;;;;;5049230;28;20051;-73
2023/08/09 10:24:18;;;;;;;8.43;4.65;;;;;;;;;;5049412;28;20017;-73
2023/08/09 10:26:46;;;;;;;7.43;4.38;;;;;;;;;;5047428;28;20546;-73
2023/08/09 10:29:12;;;;;;;7.80;4.38;;;;;;;;;;5043604;28;20516;-73
2023/08/09 10:31:57;;;;;;;11.10;5.00;;;;;;;;;;5047478;28;20370;-71
2023/08/09 10:34:31;;;;;;;10.27;4.50;;;;;;;;;;5050187;28;20021;-72
2023/08/09 10:36:56;;;;;;;11.38;3.92;;;;;;;;;;5049384;28;20032;-72
2023/08/09 10:39:22;;;;;;;7.55;3.65;;;;;;;;;;5049187;28;20106;-72
2023/08/09 10:41:54;;;;;;;7.28;3.25;;;;;;;;;;5053014;28;20029;-72
2023/08/09 10:44:30;;;;;;;7.72;2.95;;;;;;;;;;5045654;28;20104;-72
2023/08/09 10:47:00;;;;;;;8.20;3.38;;;;;;;;;;5049640;28;20072;-72
2023/08/09 10:49:32;;;;;;;4.32;2.72;;;;;;;;;;5047479;28;20028;-72
2023/08/09 10:51:57;;;;;;;5.25;2.58;;;;;;;;;;5042169;28;20067;-72
2023/08/09 10:54:22;;;;;;;14.10;2.50;;;;;;;;;;5049610;28;20064;-72
2023/08/09 10:56:47;;;;;;;5.60;2.45;;;;;;;;;;5052406;28;20062;-72
2023/08/09 10:59:19;;;;;;;3.63;2.10;;;;;;;;;;5052266;28;20021;-72
2023/08/09 11:01:45;;;;;;;4.22;2.47;;;;;;;;;;5047068;28;20025;-72
2023/08/09 11:04:12;;;;;;;4.03;2.83;;;;;;;;;;5053343;28;20013;-72
2023/08/09 11:06:42;;;;;;;6.10;2.58;;;;;;;;;;5051807;28;20021;-72
2023/08/09 11:09:11;;;;;;;12.18;3.10;;;;;;;;;;5050694;28;20100;-71
2023/08/09 11:11:37;;;;;;;4.30;2.60;;;;;;;;;;5051043;28;20116;-72
2023/08/09 11:14:03;;;;;;;5.95;2.58;;;;;;;;;;5053425;28;20561;-72
2023/08/09 11:16:29;;;;;;;5.55;2.70;;;;;;;;;;5049692;28;20044;-73
2023/08/09 11:19:10;;;;;;;3.30;2.40;;;;;;;;;;5052047;28;20029;-72
2023/08/09 11:21:41;;;;;;;4.32;2.60;;;;;;;;;;5031379;28;20031;-72
2023/08/09 11:24:07;;;;;;;5.22;2.88;;;;;;;;;;5047067;28;20026;-72
2023/08/09 11:26:33;;;;;;;4.30;2.40;;;;;;;;;;5050968;28;20029;-72
2023/08/09 11:29:00;;;;;;;7.88;2.38;;;;;;;;;;5048064;28;20517;-72
2023/08/09 11:31:25;;;;;;;5.38;3.15;;;;;;;;;;5049697;28;20028;-72
2023/08/09 11:33:55;;;;;;;5.77;3.10;;;;;;;;;;5051724;28;20432;-72
2023/08/09 11:36:20;;;;;;;;;;;;;;;;;;5049427;28;20805;-72
2023/08/09 11:38:46;;;;;;;5.78;2.80;;;;;;;;;;5046553;28;20263;-72
2023/08/09 11:41:14;;;;;;;8.02;3.38;;;;;;;;;;5048661;28;20021;-72
2023/08/09 11:43:40;;;;;;;6.28;2.78;;;;;;;;;;5048028;28;20028;-72
2023/08/09 11:46:05;;;;;;;4.53;3.10;;;;;;;;;;5050673;28;20028;-72
2023/08/09 11:48:34;;;;;;;6.90;3.30;;;;;;;;;;5049917;28;20529;-72
2023/08/09 11:51:01;;;;;;;8.25;3.55;;;;;;;;;;5052039;28;20040;-72
2023/08/09 11:53:26;;;;;;;7.18;3.80;;;;;;;;;;5048629;28;20078;-72
2023/08/09 11:55:57;;;;;;;6.93;4.03;;;;;;;;;;5048796;28;20044;-72
2023/08/09 11:58:22;;;;;;;10.52;4.15;;;;;;;;;;5050277;28;20095;-73
2023/08/09 12:00:47;;;;;;;5.57;3.80;;;;;;;;;;5050467;28;20063;-73
2023/08/09 12:03:12;;;;;;;5.40;3.50;;;;;;;;;;5048245;28;20933;-72
2023/08/09 12:05:41;;;;;;;5.97;2.80;;;;;;;;;;5050244;28;20032;-72
2023/08/09 12:08:06;;;;;;;5.72;2.85;;;;;;;;;;5050823;28;20033;-73
2023/08/09 12:10:31;;;;;;;3.90;2.53;;;;;;;;;;5050655;28;21453;-72
2023/08/09 12:12:57;;;;;;;5.32;2.95;;;;;;;;;;5047595;28;20025;-72
2023/08/09 12:15:23;;;;;;;6.95;2.95;;;;;;;;;;5048770;28;20486;-72
2023/08/09 12:17:48;;;;;;;7.95;2.78;;;;;;;;;;5049272;28;20071;-72
2023/08/09 12:20:14;;;;;;;9.40;3.22;;;;;;;;;;5051231;28;20055;-72
2023/08/09 12:22:39;;;;;;;4.67;2.60;;;;;;;;;;5050301;28;20029;-73
2023/08/09 12:25:04;;;;;;;4.00;2.90;;;;;;;;;;5049867;28;20668;-73
2023/08/09 12:27:29;;;;;;;3.67;2.67;;;;;;;;;;5050823;28;20606;-73
2023/08/09 12:29:55;;;;;;;6.83;3.37;;;;;;;;;;5051071;28;20098;-73
2023/08/09 12:32:20;;;;;;;5.85;3.38;;;;;;;;;;5051172;28;20028;-72
2023/08/09 12:34:48;;;;;;;7.90;3.55;;;;;;;;;;5050583;28;20541;-73
2023/08/09 12:37:13;;;;;;;4.10;2.88;;;;;;;;;;5050313;28;20025;-74
2023/08/09 12:39:38;;;;;;;5.40;3.20;;;;;;;;;;5048815;28;20381;-73
2023/08/09 12:42:04;;;;;;;5.07;2.40;;;;;;;;;;5049370;28;20037;-73
2023/08/09 12:44:29;;;;;;;4.05;2.30;;;;;;;;;;5047671;28;20274;-73
2023/08/09 12:46:54;;;;;;;3.60;2.25;;;;;;;;;;5050069;28;20047;-72
2023/08/09 12:49:20;;;;;;;3.63;2.08;;;;;;;;;;5048480;28;20096;-73
2023/08/09 12:51:45;;;;;;;12.75;2.92;;;;;;;;;;5049519;28;20028;-72
2023/08/09 12:54:11;;;;;;;6.07;2.20;;;;;;;;;;5049058;28;20474;-73
2023/08/09 12:56:37;;;;;;;2.90;2.15;;;;;;;;;;5048714;28;20036;-74
2023/08/09 12:59:04;;;;;;;3.80;1.92;;;;;;;;;;5048000;28;20017;-73
2023/08/09 13:01:29;;;;;;;3.70;2.05;;;;;;;;;;5030286;28;20044;-74
2023/08/09 13:03:54;;;;;;;6.63;2.37;;;;;;;;;;5048597;28;20397;-74
2023/08/09 13:06:22;;;;;;;7.97;2.58;;;;;;;;;;5046164;28;20275;-74
2023/08/09 13:08:48;;;;;;;4.95;2.30;;;;;;;;;;5047743;28;20070;-74
2023/08/09 13:11:13;;;;;;;3.55;2.20;;;;;;;;;;5048548;28;20379;-74
2023/08/09 13:13:39;;;;;;;5.35;2.40;;;;;;;;;;5048407;28;20108;-74
2023/08/09 13:16:06;;;;;;;6.50;2.60;;;;;;;;;;5050879;28;20021;-74
2023/08/09 13:18:32;;;;;;;4.75;2.13;;;;;;;;;;5049433;28;20679;-74
2023/08/09 13:20:58;;;;;;;4.85;2.13;;;;;;;;;;5046749;28;20104;-74
2023/08/09 13:23:23;;;;;;;5.35;1.80;;;;;;;;;;5045622;28;20017;-74
2023/08/09 13:25:48;;;;;;;4.63;2.20;;;;;;;;;;5047888;28;20036;-74
2023/08/09 13:28:13;;;;;;;3.87;2.07;;;;;;;;;;5048924;28;20375;-74
2023/08/09 13:30:38;;;;;;;4.20;2.23;;;;;;;;;;5048999;28;20513;-74
2023/08/09 13:33:04;;;;;;;3.77;1.90;;;;;;;;;;5049804;28;20301;-74
2023/08/09 13:35:29;;;;;;;3.13;2.08;;;;;;;;;;5048167;28;20020;-74
2023/08/09 13:37:54;;;;;;;4.20;1.85;;;;;;;;;;5050350;28;20025;-74
2023/08/09 13:40:20;;;;;;;6.27;2.17;;;;;;;;;;5049680;28;20013;-74
2023/08/09 13:42:45;;;;;;;5.93;2.55;;;;;;;;;;5049096;28;20017;-74
2023/08/09 13:45:10;;;;;;;7.38;2.63;;;;;;;;;;5048983;28;20470;-74
2023/08/09 13:47:38;;;;;;;4.27;2.30;;;;;;;;;;5048013;28;20032;-74
2023/08/09 13:50:05;;;;;;;6.72;2.15;;;;;;;;;;5049693;28;20377;-74
2023/08/09 13:52:30;;;;;;;2.80;1.70;;;;;;;;;;5049786;28;20028;-74
2023/08/09 13:54:55;;;;;;;4.00;2.22;;;;;;;;;;5048172;28;20042;-74
2023/08/09 13:57:21;;;;;;;8.00;2.63;;;;;;;;;;5046749;28;20112;-75
2023/08/09 13:59:47;;;;;;;9.65;2.75;;;;;;;;;;5048510;28;20350;-74
2023/08/09 14:02:12;;;;;;;6.30;2.33;;;;;;;;;;5048645;28;20075;-74
2023/08/09 14:04:38;;;;;;;3.53;1.60;;;;;;;;;;5047484;28;20071;-74
2023/08/09 14:07:04;;;;;;;5.28;2.03;;;;;;;;;;5046410;28;20081;-74
2023/08/09 14:09:30;;;;;;;7.90;1.77;;;;;;;;;;5048762;28;20020;-74
2023/08/09 14:11:55;;;;;;;10.10;1.38;;;;;;;;;;5048548;28;20029;-74
2023/08/09 14:14:20;;;;;;;5.73;1.40;;;;;;;;;;5048953;28;20033;-74
2023/08/09 14:16:45;;;;;;;3.58;1.85;;;;;;;;;;5047222;28;20017;-74
2023/08/09 14:19:12;;;;;;;11.60;2.47;;;;;;;;;;5047528;28;20024;-74
2023/08/09 14:21:38;;;;;;;6.65;2.08;;;;;;;;;;5044501;28;20354;-74
2023/08/09 14:24:04;;;;;;;6.65;1.52;;;;;;;;;;5047830;28;20096;-74
2023/08/09 14:26:30;;;;;;;6.85;1.60;;;;;;;;;;5047687;28;20024;-74
2023/08/09 14:28:55;;;;;;;2.78;1.55;;;;;;;;;;5047964;28;20075;-74
2023/08/09 14:31:20;;;;;;;2.83;1.13;;;;;;;;;;5048663;28;20075;-75